Time,TemperatureF,DewpointF,PressureIn,WindDirection,WindDirectionDegrees,WindSpeedMPH,WindSpeedGustMPH,Humidity,HourlyPrecipIn,Conditions,Clouds,dailyrainin,SoftwareType,DateUTC
2013-01-08 00:02:00,30.0,23.0,-100.00,SW,225,23.0,35.0,75,-99.99,,,0.00,,2013-01-08 07:02:00,
2013-01-08 00:12:00,29.0,23.0,-100.00,SW,225,22.0,31.0,76,-99.99,,,-99.99,,2013-01-08 07:12:00,
2013-01-08 00:22:00,29.0,23.0,-100.00,SW,225,22.0,31.0,76,-99.99,,,-99.99,,2013-01-08 07:22:00,
2013-01-08 00:32:00,29.0,23.0,-100.00,SW,225,22.0,31.0,76,-99.99,,,-99.99,,2013-01-08 07:32:00,
2013-01-08 00:42:00,29.0,23.0,-100.00,SW,225,22.0,31.0,76,-99.99,,,-99.99,,2013-01-08 07:42:00,
2013-01-08 00:52:00,29.0,22.0,-100.00,SW,225,27.0,34.0,72,-99.99,,,0.00,,2013-01-08 07:52:00,
2013-01-08 01:02:00,29.0,22.0,-100.00,SW,225,27.0,34.0,72,-99.99,,,0.00,,2013-01-08 08:02:00,
2013-01-08 01:12:00,29.0,21.0,-100.00,SW,230,24.0,31.0,71,-99.99,,,0.00,,2013-01-08 08:12:00,
2013-01-08 01:22:00,29.0,21.0,-100.00,SW,230,24.0,31.0,71,-99.99,,,0.00,,2013-01-08 08:22:00,
2013-01-08 01:32:00,30.0,21.0,-100.00,WSW,240,21.0,32.0,71,-99.99,,,0.00,,2013-01-08 08:32:00,
2013-01-08 01:42:00,30.0,21.0,-100.00,WSW,240,21.0,32.0,71,-99.99,,,0.00,,2013-01-08 08:42:00,
2013-01-08 01:52:00,29.0,21.0,-100.00,WSW,245,17.0,24.0,72,-99.99,,,0.00,,2013-01-08 08:52:00,
2013-01-08 02:02:00,29.0,21.0,-100.00,WSW,245,17.0,24.0,72,-99.99,,,0.00,,2013-01-08 09:02:00,
2013-01-08 02:12:00,29.0,21.0,-100.00,SW,230,20.0,27.0,72,-99.99,,,0.00,,2013-01-08 09:12:00,
2013-01-08 02:22:00,29.0,21.0,-100.00,SW,230,20.0,27.0,72,-99.99,,,0.00,,2013-01-08 09:22:00,
2013-01-08 02:32:00,29.0,21.0,-100.00,WSW,240,21.0,29.0,72,-99.99,,,0.00,,2013-01-08 09:32:00,
2013-01-08 02:42:00,29.0,21.0,-100.00,WSW,240,21.0,29.0,72,-99.99,,,0.00,,2013-01-08 09:42:00,
2013-01-08 02:52:00,28.0,21.0,-100.00,SW,225,26.0,30.0,73,-99.99,,,0.00,,2013-01-08 09:52:00,
2013-01-08 03:02:00,28.0,21.0,-100.00,SW,225,26.0,30.0,73,-99.99,,,0.00,,2013-01-08 10:02:00,
2013-01-08 03:12:00,28.0,20.0,-100.00,SW,230,20.0,30.0,72,-99.99,,,0.00,,2013-01-08 10:12:00,
2013-01-08 03:22:00,28.0,20.0,-100.00,SW,230,20.0,30.0,72,-99.99,,,0.00,,2013-01-08 10:22:00,
2013-01-08 03:32:00,28.0,21.0,-100.00,SW,230,27.0,32.0,74,-99.99,,,0.00,,2013-01-08 10:32:00,
2013-01-08 03:42:00,28.0,21.0,-100.00,SW,230,27.0,32.0,74,-99.99,,,0.00,,2013-01-08 10:42:00,
2013-01-08 03:52:00,27.0,21.0,-100.00,SW,220,29.0,37.0,77,-99.99,,,0.00,,2013-01-08 10:52:00,
2013-01-08 04:02:00,27.0,21.0,-100.00,SW,220,29.0,37.0,77,-99.99,,,0.00,,2013-01-08 11:02:00,
2013-01-08 04:12:00,27.0,21.0,-100.00,SW,230,26.0,34.0,78,-99.99,,,0.00,,2013-01-08 11:12:00,
2013-01-08 04:22:00,27.0,21.0,-100.00,SW,230,26.0,34.0,78,-99.99,,,0.00,,2013-01-08 11:22:00,
2013-01-08 04:32:00,27.0,21.0,-100.00,SW,225,26.0,34.0,77,-99.99,,,0.00,,2013-01-08 11:32:00,
2013-01-08 04:42:00,27.0,21.0,-100.00,SW,225,26.0,34.0,77,-99.99,,,0.00,,2013-01-08 11:42:00,
2013-01-08 04:53:00,26.0,20.0,-100.00,SW,220,27.0,35.0,78,-99.99,,,0.00,,2013-01-08 11:53:00,
2013-01-08 05:02:00,26.0,20.0,-100.00,SW,220,27.0,35.0,78,-99.99,,,0.00,,2013-01-08 12:02:00,
2013-01-08 05:12:00,27.0,20.0,-100.00,SW,225,26.0,32.0,76,-99.99,,,0.00,,2013-01-08 12:12:00,
2013-01-08 05:22:00,27.0,20.0,-100.00,SW,225,26.0,32.0,76,-99.99,,,0.00,,2013-01-08 12:22:00,
2013-01-08 05:32:00,26.0,21.0,-100.00,SW,225,22.0,34.0,80,-99.99,,,0.00,,2013-01-08 12:32:00,
2013-01-08 05:41:00,25.0,21.0,-100.00,SW,220,27.0,30.0,84,-99.99,,,0.00,,2013-01-08 12:41:00,
2013-01-08 05:42:00,26.0,21.0,-100.00,SW,225,22.0,34.0,80,-99.99,,,0.00,,2013-01-08 12:42:00,
2013-01-08 05:53:00,26.0,21.0,-100.00,SW,215,23.0,31.0,80,-99.99,,,0.00,,2013-01-08 12:53:00,
2013-01-08 06:03:00,26.0,21.0,-100.00,SW,215,23.0,31.0,80,-99.99,,,0.00,,2013-01-08 13:03:00,
2013-01-08 06:12:00,25.0,21.0,-100.00,SW,220,27.0,30.0,84,-99.99,,,0.00,,2013-01-08 13:12:00,
2013-01-08 06:22:00,25.0,21.0,-100.00,SW,220,27.0,30.0,84,-99.99,,,0.00,,2013-01-08 13:22:00,
2013-01-08 06:32:00,25.0,21.0,-100.00,SW,220,27.0,30.0,84,-99.99,,,0.00,,2013-01-08 13:32:00,
2013-01-08 06:52:00,25.0,20.0,-100.00,SW,215,20.0,29.0,82,-99.99,,,0.00,,2013-01-08 13:52:00,
2013-01-08 07:02:00,25.0,20.0,-100.00,SW,215,20.0,29.0,82,-99.99,,,0.00,,2013-01-08 14:02:00,
2013-01-08 07:12:00,25.0,20.0,-100.00,SW,215,19.0,26.0,81,-99.99,,,0.00,,2013-01-08 14:12:00,
2013-01-08 07:22:00,25.0,20.0,-100.00,SW,215,19.0,26.0,81,-99.99,,,0.00,,2013-01-08 14:22:00,
2013-01-08 07:33:00,25.0,20.0,-100.00,SW,215,20.0,27.0,82,-99.99,,,0.00,,2013-01-08 14:33:00,
2013-01-08 07:42:00,25.0,20.0,-100.00,SW,215,20.0,27.0,82,-99.99,,,0.00,,2013-01-08 14:42:00,
2013-01-08 07:53:00,25.0,19.0,-100.00,SW,215,16.0,21.0,79,-99.99,,,0.00,,2013-01-08 14:53:00,
2013-01-08 08:02:00,25.0,19.0,-100.00,SW,215,16.0,21.0,79,-99.99,,,0.00,,2013-01-08 15:02:00,
2013-01-08 08:12:00,25.0,19.0,-100.00,SW,220,14.0,20.0,78,-99.99,,,0.00,,2013-01-08 15:12:00,
2013-01-08 08:22:00,25.0,19.0,-100.00,SW,220,14.0,20.0,78,-99.99,,,0.00,,2013-01-08 15:22:00,
2013-01-08 08:33:00,25.0,18.0,-100.00,SSW,210,16.0,22.0,77,-99.99,,,0.00,,2013-01-08 15:33:00,
2013-01-08 08:42:00,25.0,18.0,-100.00,SSW,210,16.0,22.0,77,-99.99,,,0.00,,2013-01-08 15:42:00,
2013-01-08 08:52:00,24.0,18.0,-100.00,SSW,210,14.0,23.0,75,-99.99,,,0.00,,2013-01-08 15:52:00,
2013-01-08 09:03:00,24.0,18.0,-100.00,SSW,210,14.0,23.0,75,-99.99,,,0.00,,2013-01-08 16:03:00,
2013-01-08 09:12:00,25.0,17.0,-100.00,SSW,210,11.0,17.0,71,-99.99,,,0.00,,2013-01-08 16:12:00,
2013-01-08 09:22:00,25.0,17.0,-100.00,SSW,210,11.0,17.0,71,-99.99,,,0.00,,2013-01-08 16:22:00,
2013-01-08 09:33:00,25.0,17.0,-100.00,SSW,200,3.0,11.0,69,-99.99,,,0.00,,2013-01-08 16:33:00,
2013-01-08 09:42:00,25.0,17.0,-100.00,SSW,200,3.0,11.0,69,-99.99,,,0.00,,2013-01-08 16:42:00,
2013-01-08 09:52:00,25.0,16.0,-100.00,SSW,210,15.0,21.0,68,-99.99,,,0.00,,2013-01-08 16:52:00,
2013-01-08 10:03:00,25.0,16.0,-100.00,SSW,210,15.0,21.0,68,-99.99,,,0.00,,2013-01-08 17:03:00,
2013-01-08 10:12:00,25.0,16.0,-100.00,SSW,210,15.0,20.0,69,-99.99,,,0.00,,2013-01-08 17:12:00,
2013-01-08 10:22:00,25.0,16.0,-100.00,SSW,210,15.0,20.0,69,-99.99,,,0.00,,2013-01-08 17:22:00,
2013-01-08 10:33:00,24.0,16.0,-100.00,SW,220,12.0,16.0,69,-99.99,,,0.00,,2013-01-08 17:33:00,
2013-01-08 10:42:00,24.0,16.0,-100.00,SW,220,12.0,16.0,69,-99.99,,,0.00,,2013-01-08 17:42:00,
2013-01-08 10:53:00,26.0,15.0,-100.00,SW,225,17.0,19.0,64,-99.99,,,0.00,,2013-01-08 17:53:00,
2013-01-08 11:03:00,26.0,15.0,-100.00,SW,225,17.0,19.0,64,-99.99,,,0.00,,2013-01-08 18:03:00,
2013-01-08 11:12:00,26.0,15.0,-100.00,SW,225,17.0,19.0,64,-99.99,,,0.00,,2013-01-08 18:12:00,
2013-01-08 11:22:00,26.0,15.0,-100.00,SW,225,17.0,19.0,64,-99.99,,,0.00,,2013-01-08 18:22:00,
2013-01-08 11:33:00,27.0,16.0,-100.00,SW,235,13.0,19.0,62,-99.99,,,0.00,,2013-01-08 18:33:00,
2013-01-08 11:43:00,27.0,16.0,-100.00,SW,235,13.0,19.0,62,-99.99,,,0.00,,2013-01-08 18:43:00,
2013-01-08 11:53:00,27.0,15.0,-100.00,SW,225,14.0,20.0,60,-99.99,,,0.00,,2013-01-08 18:53:00,
2013-01-08 12:03:00,27.0,15.0,-100.00,SW,225,14.0,20.0,60,-99.99,,,0.00,,2013-01-08 19:03:00,
2013-01-08 12:12:00,27.0,15.0,-100.00,SW,225,14.0,20.0,60,-99.99,,,0.00,,2013-01-08 19:12:00,
2013-01-08 12:22:00,27.0,15.0,-100.00,SW,225,14.0,20.0,60,-99.99,,,0.00,,2013-01-08 19:22:00,
2013-01-08 12:53:00,27.0,16.0,-100.00,SSW,200,15.0,19.0,62,-99.99,,,0.00,,2013-01-08 19:53:00,
2013-01-08 13:02:00,27.0,16.0,-100.00,SSW,200,15.0,19.0,62,-99.99,,,0.00,,2013-01-08 20:02:00,
2013-01-08 13:12:00,27.0,16.0,-100.00,SW,225,17.0,20.0,62,-99.99,,,-99.99,,2013-01-08 20:12:00,
2013-01-08 13:22:00,27.0,16.0,-100.00,SW,225,17.0,20.0,62,-99.99,,,-99.99,,2013-01-08 20:22:00,
2013-01-08 13:33:00,28.0,16.0,-100.00,SW,225,7.0,10.0,61,-99.99,,,0.00,,2013-01-08 20:33:00,
2013-01-08 13:43:00,28.0,16.0,-100.00,SW,225,7.0,10.0,61,-99.99,,,0.00,,2013-01-08 20:43:00,
2013-01-08 13:53:00,28.0,17.0,-100.00,SW,220,8.0,13.0,64,-99.99,,,0.00,,2013-01-08 20:53:00,
2013-01-08 14:02:00,28.0,17.0,-100.00,SW,220,8.0,13.0,64,-99.99,,,0.00,,2013-01-08 21:02:00,
2013-01-08 14:12:00,28.0,17.0,-100.00,SSW,205,13.0,18.0,63,-99.99,,,0.00,,2013-01-08 21:12:00,
2013-01-08 14:22:00,28.0,17.0,-100.00,SSW,205,13.0,18.0,63,-99.99,,,0.00,,2013-01-08 21:22:00,
2013-01-08 14:33:00,28.0,18.0,-100.00,SW,225,8.0,16.0,64,-99.99,,,0.00,,2013-01-08 21:33:00,
2013-01-08 14:42:00,28.0,18.0,-100.00,SW,225,8.0,16.0,64,-99.99,,,0.00,,2013-01-08 21:42:00,
2013-01-08 14:53:00,29.0,18.0,-100.00,SW,225,10.0,12.0,64,-99.99,,,0.00,,2013-01-08 21:53:00,
2013-01-08 15:02:00,29.0,18.0,-100.00,SW,225,10.0,12.0,64,-99.99,,,0.00,,2013-01-08 22:02:00,
2013-01-08 15:12:00,29.0,19.0,-100.00,SW,215,9.0,17.0,66,-99.99,,,0.00,,2013-01-08 22:12:00,
2013-01-08 15:22:00,29.0,19.0,-100.00,SW,215,9.0,17.0,66,-99.99,,,0.00,,2013-01-08 22:22:00,
2013-01-08 15:32:00,29.0,19.0,-100.00,SW,220,15.0,19.0,66,-99.99,,,-99.99,,2013-01-08 22:32:00,
2013-01-08 15:42:00,29.0,19.0,-100.00,SW,220,15.0,19.0,66,-99.99,,,-99.99,,2013-01-08 22:42:00,
2013-01-08 15:52:00,29.0,20.0,-100.00,SW,225,14.0,20.0,66,-99.99,,,-99.99,,2013-01-08 22:52:00,
2013-01-08 16:02:00,29.0,20.0,-100.00,SW,225,14.0,20.0,66,-99.99,,,-99.99,,2013-01-08 23:02:00,
2013-01-08 16:12:00,29.0,20.0,-100.00,SW,225,14.0,18.0,67,-99.99,,,0.00,,2013-01-08 23:12:00,
2013-01-08 16:22:00,29.0,20.0,-100.00,SW,225,14.0,18.0,67,-99.99,,,0.00,,2013-01-08 23:22:00,
2013-01-08 16:32:00,29.0,21.0,-100.00,SW,230,18.0,22.0,69,-99.99,,,0.00,,2013-01-08 23:32:00,
2013-01-08 16:42:00,29.0,21.0,-100.00,SW,230,18.0,22.0,69,-99.99,,,0.00,,2013-01-08 23:42:00,
2013-01-08 16:52:00,30.0,21.0,-100.00,SW,235,10.0,14.0,69,-99.99,,,-99.99,,2013-01-08 23:52:00,
2013-01-08 17:02:00,30.0,21.0,-100.00,SW,235,10.0,14.0,69,-99.99,,,-99.99,,2013-01-09 00:02:00,
2013-01-08 17:12:00,31.0,22.0,-100.00,SW,225,14.0,20.0,69,-99.99,,,0.00,,2013-01-09 00:12:00,
2013-01-08 17:22:00,31.0,22.0,-100.00,SW,225,14.0,20.0,69,-99.99,,,0.00,,2013-01-09 00:22:00,
2013-01-08 17:32:00,31.0,22.0,-100.00,SW,225,12.0,16.0,69,-99.99,,,0.00,,2013-01-09 00:32:00,
2013-01-08 17:42:00,31.0,22.0,-100.00,SW,225,12.0,16.0,69,-99.99,,,0.00,,2013-01-09 00:42:00,
2013-01-08 17:52:00,31.0,22.0,-100.00,SW,225,14.0,21.0,71,-99.99,,,0.00,,2013-01-09 00:52:00,
2013-01-08 18:02:00,31.0,22.0,-100.00,SW,225,14.0,21.0,71,-99.99,,,0.00,,2013-01-09 01:02:00,
2013-01-08 18:12:00,31.0,23.0,-100.00,SW,230,11.0,20.0,70,-99.99,,,0.00,,2013-01-09 01:12:00,
2013-01-08 18:22:00,31.0,23.0,-100.00,SW,230,11.0,20.0,70,-99.99,,,0.00,,2013-01-09 01:22:00,
2013-01-08 18:32:00,32.0,23.0,-100.00,SW,235,8.0,12.0,69,-99.99,,,0.00,,2013-01-09 01:32:00,
2013-01-08 18:42:00,32.0,23.0,-100.00,SW,235,8.0,12.0,69,-99.99,,,0.00,,2013-01-09 01:42:00,
2013-01-08 18:52:00,32.0,24.0,-100.00,SW,225,10.0,13.0,73,-99.99,,,0.00,,2013-01-09 01:52:00,
2013-01-08 19:02:00,32.0,24.0,-100.00,SW,225,10.0,13.0,73,-99.99,,,0.00,,2013-01-09 02:02:00,
2013-01-08 19:12:00,32.0,24.0,-100.00,SW,220,8.0,15.0,73,-99.99,,,0.00,,2013-01-09 02:12:00,
2013-01-08 19:22:00,32.0,24.0,-100.00,SW,220,8.0,15.0,73,-99.99,,,0.00,,2013-01-09 02:22:00,
2013-01-08 19:32:00,32.0,24.0,-100.00,WSW,255,6.0,10.0,73,-99.99,,,-99.99,,2013-01-09 02:32:00,
2013-01-08 19:42:00,32.0,24.0,-100.00,WSW,255,6.0,10.0,73,-99.99,,,-99.99,,2013-01-09 02:42:00,
2013-01-08 19:52:00,32.0,25.0,-100.00,SW,230,4.0,12.0,73,-99.99,,,0.00,,2013-01-09 02:52:00,
2013-01-08 20:03:00,32.0,25.0,-100.00,SW,230,4.0,12.0,73,-99.99,,,0.00,,2013-01-09 03:03:00,
2013-01-08 20:12:00,33.0,25.0,-100.00,SW,230,9.0,15.0,72,-99.99,,,0.00,,2013-01-09 03:12:00,
2013-01-08 20:22:00,33.0,25.0,-100.00,SW,230,9.0,15.0,72,-99.99,,,0.00,,2013-01-09 03:22:00,
2013-01-08 20:33:00,33.0,25.0,-100.00,SW,230,9.0,15.0,72,-99.99,,,0.00,,2013-01-09 03:33:00,
2013-01-08 20:42:00,34.0,26.0,-100.00,West,280,3.0,7.0,70,-99.99,,,0.00,,2013-01-09 03:42:00,
2013-01-08 20:52:00,34.0,26.0,-100.00,SW,235,6.0,10.0,70,-99.99,,,0.00,,2013-01-09 03:52:00,
2013-01-08 21:02:00,34.0,26.0,-100.00,SW,235,6.0,10.0,70,-99.99,,,0.00,,2013-01-09 04:02:00,
2013-01-08 21:12:00,34.0,26.0,-100.00,West,280,3.0,7.0,70,-99.99,,,0.00,,2013-01-09 04:12:00,
2013-01-08 21:22:00,34.0,26.0,-100.00,West,280,3.0,7.0,70,-99.99,,,0.00,,2013-01-09 04:22:00,
2013-01-08 21:32:00,34.0,26.0,-100.00,West,280,3.0,7.0,70,-99.99,,,0.00,,2013-01-09 04:32:00,
2013-01-08 21:52:00,34.0,26.0,-100.00,SW,225,14.0,17.0,70,-99.99,,,0.00,,2013-01-09 04:52:00,
2013-01-08 22:03:00,34.0,26.0,-100.00,SW,225,14.0,17.0,70,-99.99,,,0.00,,2013-01-09 05:03:00,
2013-01-08 22:12:00,34.0,26.0,-100.00,SSW,210,14.0,21.0,73,-99.99,,,0.00,,2013-01-09 05:12:00,
2013-01-08 22:22:00,34.0,26.0,-100.00,SSW,210,14.0,21.0,73,-99.99,,,0.00,,2013-01-09 05:22:00,
2013-01-08 22:33:00,33.0,25.0,-100.00,SSW,210,16.0,21.0,71,-99.99,,,0.00,,2013-01-09 05:33:00,
2013-01-08 22:42:00,33.0,25.0,-100.00,SSW,210,16.0,21.0,71,-99.99,,,0.00,,2013-01-09 05:42:00,
2013-01-08 22:52:00,34.0,25.0,-100.00,SSW,205,16.0,20.0,70,-99.99,,,0.00,,2013-01-09 05:52:00,
2013-01-08 23:02:00,34.0,25.0,-100.00,SSW,205,16.0,20.0,70,-99.99,,,0.00,,2013-01-09 06:02:00,
2013-01-08 23:12:00,34.0,26.0,-100.00,SSW,210,20.0,25.0,71,-99.99,,,0.00,,2013-01-09 06:12:00,
2013-01-08 23:22:00,34.0,26.0,-100.00,SSW,210,20.0,25.0,71,-99.99,,,0.00,,2013-01-09 06:22:00,
2013-01-08 23:32:00,34.0,26.0,-100.00,SSW,210,20.0,25.0,71,-99.99,,,0.00,,2013-01-09 06:32:00,
2013-01-08 23:40:00,34.0,24.0,-100.00,SW,220,12.0,26.0,67,-99.99,,,0.00,,2013-01-09 06:40:00,
2013-01-08 23:42:00,34.0,26.0,-100.00,SSW,210,20.0,25.0,71,-99.99,,,0.00,,2013-01-09 06:42:00,
2013-01-08 23:52:00,35.0,25.0,-100.00,SW,230,8.0,12.0,66,-99.99,,,0.00,,2013-01-09 06:52:00,